Moapa, Nevada
Current Conditions -  °F | °C
As of 8:58 PM on Monday 26 Jan 2015 (Local Time) from KLSV Reporting Station
Overcast Overcast  
Wind Chill: 58°   Ceiling: 9000
Heat Index: 58°   Visibility: 10mi
Dew Point: 48°   Wind: 6mph
Humidity: 70%   Direction: NA
Pressure: 30.12"   Gusts: NA
Location:  36.67°N, 114.62°W
Report Text: KLSV 270458Z AUTO VRB05KT 10SM OVC090 15/09 A3012 RMK AO2 SLP195 T01450090 $
Loading
Personal Weather Stations






























Interactive Weather Map New forecast layout! Learn more

10-Day Weather Forecast

Advertisements
Track Severe Weather on mobile